sensor_id;sensor_type;location;lat;lon;timestamp;pressure;altitude;pressure_sealevel;temperature;humidity
13456;BME280;6800;50.940;6.940;2023-02-10T00:00:50;102792.38;;;14.90;40.23
13456;BME280;6800;50.940;6.940;2023-02-10T00:04:52;102801.59;;;15.00;39.62
13456;BME280;6800;50.940;6.940;2023-02-10T00:08:56;102801.66;;;14.77;40.42
13456;BME280;6800;50.940;6.940;2023-02-10T00:12:57;102807.97;;;14.73;39.98
13456;BME280;6800;50.940;6.940;2023-02-10T00:16:59;102812.06;;;14.80;39.80
13456;BME280;6800;50.940;6.940;2023-02-10T00:21:10;102810.53;;;14.74;40.27
13456;BME280;6800;50.940;6.940;2023-02-10T00:25:11;102813.94;;;14.98;39.71
13456;BME280;6800;50.940;6.940;2023-02-10T00:29:13;102814.19;;;14.92;39.74
13456;BME280;6800;50.940;6.940;2023-02-10T00:33:14;102808.56;;;15.01;39.53
13456;BME280;6800;50.940;6.940;2023-02-10T00:37:16;102805.38;;;14.93;39.84
13456;BME280;6800;50.940;6.940;2023-02-10T00:41:20;102810.09;;;14.63;40.45
13456;BME280;6800;50.940;6.940;2023-02-10T00:45:22;102819.53;;;14.91;39.81
13456;BME280;6800;50.940;6.940;2023-02-10T00:49:23;102823.25;;;14.85;40.00
13456;BME280;6800;50.940;6.940;2023-02-10T00:53:25;102831.19;;;15.05;39.54
13456;BME280;6800;50.940;6.940;2023-02-10T00:57:26;102821.91;;;14.97;39.24
13456;BME280;6800;50.940;6.940;2023-02-10T01:01:28;102818.41;;;14.96;39.81
13456;BME280;6800;50.940;6.940;2023-02-10T01:05:29;102820.53;;;15.08;39.53
13456;BME280;6800;50.940;6.940;2023-02-10T01:09:30;102819.94;;;15.02;39.11
13456;BME280;6800;50.940;6.940;2023-02-10T01:13:33;102818.84;;;15.07;38.98
13456;BME280;6800;50.940;6.940;2023-02-10T01:17:35;102828.06;;;15.17;39.37
13456;BME280;6800;50.940;6.940;2023-02-10T01:21:36;102835.84;;;14.99;39.42
13456;BME280;6800;50.940;6.940;2023-02-10T01:25:39;102829.38;;;14.85;39.42
13456;BME280;6800;50.940;6.940;2023-02-10T01:29:40;102831.50;;;14.76;39.55
13456;BME280;6800;50.940;6.940;2023-02-10T01:33:42;102842.19;;;14.93;39.69
13456;BME280;6800;50.940;6.940;2023-02-10T01:37:43;102840.78;;;15.06;39.15
13456;BME280;6800;50.940;6.940;2023-02-10T01:41:45;102848.81;;;15.03;39.72
13456;BME280;6800;50.940;6.940;2023-02-10T01:45:46;102841.56;;;15.08;39.57
13456;BME280;6800;50.940;6.940;2023-02-10T01:49:49;102846.31;;;15.00;39.61
13456;BME280;6800;50.940;6.940;2023-02-10T01:53:52;102857.94;;;15.16;39.92
13456;BME280;6800;50.940;6.940;2023-02-10T01:57:53;102850.25;;;15.10;40.09
13456;BME280;6800;50.940;6.940;2023-02-10T02:01:55;102851.38;;;15.05;39.85
13456;BME280;6800;50.940;6.940;2023-02-10T02:05:57;102849.44;;;15.10;39.87
13456;BME280;6800;50.940;6.940;2023-02-10T02:09:59;102854.09;;;15.03;39.81
13456;BME280;6800;50.940;6.940;2023-02-10T02:14:10;102856.47;;;15.09;39.70
13456;BME280;6800;50.940;6.940;2023-02-10T02:18:33;102856.22;;;15.15;39.71
13456;BME280;6800;50.940;6.940;2023-02-10T02:27:15;102854.88;;;15.05;39.77
13456;BME280;6800;50.940;6.940;2023-02-10T02:31:44;102869.97;;;15.00;39.72
13456;BME280;6800;50.940;6.940;2023-02-10T02:35:59;102867.88;;;15.08;39.89
13456;BME280;6800;50.940;6.940;2023-02-10T02:40:03;102869.06;;;15.01;39.74
13456;BME280;6800;50.940;6.940;2023-02-10T02:44:05;102867.88;;;15.08;39.59
13456;BME280;6800;50.940;6.940;2023-02-10T02:52:58;102880.38;;;15.03;39.73
13456;BME280;6800;50.940;6.940;2023-02-10T03:01:26;102877.06;;;15.20;39.76
13456;BME280;6800;50.940;6.940;2023-02-10T03:05:31;102879.78;;;15.18;39.53
13456;BME280;6800;50.940;6.940;2023-02-10T03:09:35;102884.84;;;15.01;40.06
13456;BME280;6800;50.940;6.940;2023-02-10T03:13:37;102886.91;;;15.15;40.05
13456;BME280;6800;50.940;6.940;2023-02-10T03:17:39;102886.38;;;15.07;39.87
13456;BME280;6800;50.940;6.940;2023-02-10T03:21:41;102886.47;;;15.04;39.50
13456;BME280;6800;50.940;6.940;2023-02-10T03:25:45;102888.47;;;15.20;39.74
13456;BME280;6800;50.940;6.940;2023-02-10T03:29:47;102896.56;;;15.14;39.70
13456;BME280;6800;50.940;6.940;2023-02-10T03:33:50;102895.44;;;14.76;40.08
13456;BME280;6800;50.940;6.940;2023-02-10T03:37:52;102900.06;;;15.15;39.44
13456;BME280;6800;50.940;6.940;2023-02-10T03:41:53;102894.69;;;14.96;39.48
13456;BME280;6800;50.940;6.940;2023-02-10T03:45:59;102892.53;;;14.84;40.32
13456;BME280;6800;50.940;6.940;2023-02-10T03:50:00;102888.13;;;14.84;39.67
13456;BME280;6800;50.940;6.940;2023-02-10T03:54:02;102875.75;;;14.65;39.74
13456;BME280;6800;50.940;6.940;2023-02-10T03:58:03;102859.78;;;14.48;39.95
13456;BME280;6800;50.940;6.940;2023-02-10T04:02:05;102857.41;;;14.40;39.78
13456;BME280;6800;50.940;6.940;2023-02-10T04:06:07;102845.78;;;14.47;40.54
13456;BME280;6800;50.940;6.940;2023-02-10T04:10:09;102829.78;;;14.30;40.32
13456;BME280;6800;50.940;6.940;2023-02-10T04:14:11;102833.78;;;14.40;40.34
13456;BME280;6800;50.940;6.940;2023-02-10T04:18:12;102839.53;;;14.27;40.67
13456;BME280;6800;50.940;6.940;2023-02-10T04:22:13;102853.69;;;14.23;39.92
13456;BME280;6800;50.940;6.940;2023-02-10T04:26:14;102857.75;;;14.08;41.16
13456;BME280;6800;50.940;6.940;2023-02-10T04:30:16;102871.34;;;13.94;41.14
13456;BME280;6800;50.940;6.940;2023-02-10T04:34:17;102873.72;;;13.77;41.16
13456;BME280;6800;50.940;6.940;2023-02-10T04:38:19;102881.69;;;13.74;41.57
13456;BME280;6800;50.940;6.940;2023-02-10T04:42:20;102878.69;;;13.60;40.71
13456;BME280;6800;50.940;6.940;2023-02-10T04:46:31;102885.03;;;13.53;41.63
13456;BME280;6800;50.940;6.940;2023-02-10T04:50:33;102886.09;;;13.48;41.86
13456;BME280;6800;50.940;6.940;2023-02-10T04:54:34;102887.88;;;13.47;41.88
13456;BME280;6800;50.940;6.940;2023-02-10T04:58:35;102902.19;;;13.37;42.44
13456;BME280;6800;50.940;6.940;2023-02-10T05:02:37;102896.88;;;13.40;42.31
13456;BME280;6800;50.940;6.940;2023-02-10T05:06:38;102898.06;;;13.30;42.18
13456;BME280;6800;50.940;6.940;2023-02-10T05:10:40;102905.09;;;13.29;42.41
13456;BME280;6800;50.940;6.940;2023-02-10T05:14:41;102906.06;;;13.25;42.47
13456;BME280;6800;50.940;6.940;2023-02-10T05:18:43;102900.78;;;13.27;42.75
13456;BME280;6800;50.940;6.940;2023-02-10T05:22:44;102895.75;;;13.21;42.34
13456;BME280;6800;50.940;6.940;2023-02-10T05:26:45;102896.63;;;13.20;42.14
13456;BME280;6800;50.940;6.940;2023-02-10T05:30:47;102897.59;;;13.17;42.63
13456;BME280;6800;50.940;6.940;2023-02-10T05:34:49;102901.34;;;13.09;42.91
13456;BME280;6800;50.940;6.940;2023-02-10T05:38:50;102906.25;;;13.19;42.73
13456;BME280;6800;50.940;6.940;2023-02-10T05:43:10;102906.53;;;13.12;43.39
13456;BME280;6800;50.940;6.940;2023-02-10T05:47:11;102917.34;;;13.29;42.51
13456;BME280;6800;50.940;6.940;2023-02-10T05:51:13;102911.66;;;13.15;42.73
13456;BME280;6800;50.940;6.940;2023-02-10T05:55:14;102913.19;;;13.22;42.71
13456;BME280;6800;50.940;6.940;2023-02-10T05:59:16;102921.44;;;13.38;43.01
13456;BME280;6800;50.940;6.940;2023-02-10T06:03:17;102913.50;;;13.39;42.71
13456;BME280;6800;50.940;6.940;2023-02-10T06:07:19;102922.38;;;13.35;43.35
13456;BME280;6800;50.940;6.940;2023-02-10T06:11:20;102913.09;;;13.25;42.72
13456;BME280;6800;50.940;6.940;2023-02-10T06:15:21;102915.13;;;13.15;43.19
13456;BME280;6800;50.940;6.940;2023-02-10T06:19:23;102903.09;;;13.10;43.33
13456;BME280;6800;50.940;6.940;2023-02-10T06:23:25;102914.38;;;13.12;42.68
13456;BME280;6800;50.940;6.940;2023-02-10T06:27:26;102921.53;;;13.07;43.23
13456;BME280;6800;50.940;6.940;2023-02-10T06:31:28;102931.44;;;12.96;43.22
13456;BME280;6800;50.940;6.940;2023-02-10T06:35:29;102936.06;;;12.88;43.16
13456;BME280;6800;50.940;6.940;2023-02-10T06:39:31;102945.19;;;13.05;42.73
13456;BME280;6800;50.940;6.940;2023-02-10T06:43:32;102945.13;;;12.78;43.99
13456;BME280;6800;50.940;6.940;2023-02-10T06:47:37;102953.72;;;12.83;43.40
13456;BME280;6800;50.940;6.940;2023-02-10T06:51:39;102945.72;;;12.86;43.58
13456;BME280;6800;50.940;6.940;2023-02-10T06:55:40;102963.28;;;12.84;44.16
13456;BME280;6800;50.940;6.940;2023-02-10T06:59:42;102973.63;;;12.88;43.86
13456;BME280;6800;50.940;6.940;2023-02-10T07:03:43;102972.63;;;12.92;43.40
13456;BME280;6800;50.940;6.940;2023-02-10T07:07:44;102981.22;;;12.97;44.08
13456;BME280;6800;50.940;6.940;2023-02-10T07:11:46;102979.22;;;13.07;44.04
13456;BME280;6800;50.940;6.940;2023-02-10T07:15:48;102987.91;;;13.37;43.21
13456;BME280;6800;50.940;6.940;2023-02-10T07:19:50;102981.50;;;13.45;43.45
13456;BME280;6800;50.940;6.940;2023-02-10T07:23:51;102982.13;;;13.53;42.55
13456;BME280;6800;50.940;6.940;2023-02-10T07:27:53;102979.25;;;13.61;42.52
13456;BME280;6800;50.940;6.940;2023-02-10T07:31:55;102978.81;;;13.48;42.17
13456;BME280;6800;50.940;6.940;2023-02-10T07:36:00;102987.53;;;13.75;41.71
13456;BME280;6800;50.940;6.940;2023-02-10T07:40:04;102979.47;;;13.55;41.90
13456;BME280;6800;50.940;6.940;2023-02-10T07:44:05;102978.41;;;13.32;42.48
13456;BME280;6800;50.940;6.940;2023-02-10T07:48:06;102980.47;;;13.23;42.86
13456;BME280;6800;50.940;6.940;2023-02-10T07:52:08;102983.56;;;13.08;42.94
13456;BME280;6800;50.940;6.940;2023-02-10T07:56:09;102974.22;;;13.55;42.59
13456;BME280;6800;50.940;6.940;2023-02-10T08:00:11;102979.25;;;13.61;41.95
13456;BME280;6800;50.940;6.940;2023-02-10T08:04:15;102979.88;;;13.69;42.10
13456;BME280;6800;50.940;6.940;2023-02-10T08:08:17;102978.63;;;13.80;42.02
13456;BME280;6800;50.940;6.940;2023-02-10T08:12:18;102986.28;;;13.86;41.83
13456;BME280;6800;50.940;6.940;2023-02-10T08:16:19;102981.94;;;13.85;42.47
13456;BME280;6800;50.940;6.940;2023-02-10T08:20:21;102988.47;;;13.74;41.66
13456;BME280;6800;50.940;6.940;2023-02-10T08:24:22;102989.03;;;13.56;42.41
13456;BME280;6800;50.940;6.940;2023-02-10T08:28:24;102989.81;;;13.85;41.74
13456;BME280;6800;50.940;6.940;2023-02-10T08:32:25;102983.19;;;13.48;42.46
13456;BME280;6800;50.940;6.940;2023-02-10T08:36:26;102986.66;;;13.74;41.79
13456;BME280;6800;50.940;6.940;2023-02-10T08:40:28;102990.50;;;13.64;41.65
13456;BME280;6800;50.940;6.940;2023-02-10T08:44:29;102991.69;;;14.08;41.04
13456;BME280;6800;50.940;6.940;2023-02-10T08:48:31;102998.34;;;14.17;40.61
13456;BME280;6800;50.940;6.940;2023-02-10T08:52:33;103002.66;;;14.68;40.13
13456;BME280;6800;50.940;6.940;2023-02-10T08:56:34;103003.13;;;14.56;40.08
13456;BME280;6800;50.940;6.940;2023-02-10T09:00:36;103004.84;;;14.06;41.33
13456;BME280;6800;50.940;6.940;2023-02-10T09:04:38;103001.31;;;14.07;41.30
13456;BME280;6800;50.940;6.940;2023-02-10T09:08:39;103005.34;;;14.44;40.73
13456;BME280;6800;50.940;6.940;2023-02-10T09:12:41;103000.09;;;14.67;39.86
13456;BME280;6800;50.940;6.940;2023-02-10T09:16:43;102997.75;;;14.82;39.75
13456;BME280;6800;50.940;6.940;2023-02-10T09:20:44;103002.28;;;14.79;39.68
13456;BME280;6800;50.940;6.940;2023-02-10T09:24:45;102996.38;;;14.96;39.59
13456;BME280;6800;50.940;6.940;2023-02-10T09:28:49;102999.41;;;15.08;39.52
13456;BME280;6800;50.940;6.940;2023-02-10T09:32:50;102997.91;;;15.47;39.35
13456;BME280;6800;50.940;6.940;2023-02-10T09:36:52;103009.00;;;15.76;37.90
13456;BME280;6800;50.940;6.940;2023-02-10T09:41:05;103017.78;;;16.38;37.41
13456;BME280;6800;50.940;6.940;2023-02-10T09:45:15;103010.84;;;16.76;35.77
13456;BME280;6800;50.940;6.940;2023-02-10T09:53:46;102991.06;;;19.57;32.15
13456;BME280;6800;50.940;6.940;2023-02-10T10:02:31;103010.00;;;21.77;28.12
13456;BME280;6800;50.940;6.940;2023-02-10T10:06:37;103004.34;;;21.96;27.61
13456;BME280;6800;50.940;6.940;2023-02-10T10:10:44;103014.88;;;21.44;27.55
13456;BME280;6800;50.940;6.940;2023-02-10T10:14:46;103020.44;;;22.07;27.84
13456;BME280;6800;50.940;6.940;2023-02-10T10:19:03;103016.88;;;23.33;26.81
13456;BME280;6800;50.940;6.940;2023-02-10T10:23:19;103013.38;;;23.56;25.91
13456;BME280;6800;50.940;6.940;2023-02-10T10:32:18;103012.06;;;22.38;26.85
13456;BME280;6800;50.940;6.940;2023-02-10T10:36:36;103015.66;;;23.84;25.36
13456;BME280;6800;50.940;6.940;2023-02-10T10:40:38;103012.38;;;24.72;25.00
13456;BME280;6800;50.940;6.940;2023-02-10T10:44:42;103012.03;;;24.99;24.20
13456;BME280;6800;50.940;6.940;2023-02-10T10:48:45;103012.63;;;25.88;22.60
13456;BME280;6800;50.940;6.940;2023-02-10T10:52:49;103008.13;;;26.20;22.19
13456;BME280;6800;50.940;6.940;2023-02-10T10:56:56;102998.34;;;25.46;22.42
13456;BME280;6800;50.940;6.940;2023-02-10T11:01:00;103002.22;;;24.20;24.13
13456;BME280;6800;50.940;6.940;2023-02-10T11:05:12;103001.31;;;24.65;23.64
13456;BME280;6800;50.940;6.940;2023-02-10T11:09:24;102998.00;;;22.87;25.91
13456;BME280;6800;50.940;6.940;2023-02-10T11:13:29;102988.25;;;21.58;27.84
13456;BME280;6800;50.940;6.940;2023-02-10T11:17:37;102986.22;;;24.09;25.52
13456;BME280;6800;50.940;6.940;2023-02-10T11:21:40;102983.31;;;23.54;26.22
13456;BME280;6800;50.940;6.940;2023-02-10T11:25:46;102981.81;;;22.27;26.27
13456;BME280;6800;50.940;6.940;2023-02-10T11:33:57;102966.38;;;21.00;29.21
13456;BME280;6800;50.940;6.940;2023-02-10T11:38:03;102960.28;;;22.55;28.11
13456;BME280;6800;50.940;6.940;2023-02-10T11:42:20;102948.72;;;23.52;26.17
13456;BME280;6800;50.940;6.940;2023-02-10T11:46:30;102940.72;;;24.66;24.84
13456;BME280;6800;50.940;6.940;2023-02-10T11:50:34;102938.91;;;24.89;24.28
13456;BME280;6800;50.940;6.940;2023-02-10T11:54:36;102918.56;;;26.43;22.79
13456;BME280;6800;50.940;6.940;2023-02-10T11:58:52;102924.19;;;25.89;22.89
13456;BME280;6800;50.940;6.940;2023-02-10T12:07:20;102932.34;;;23.46;25.69
13456;BME280;6800;50.940;6.940;2023-02-10T12:11:48;102929.94;;;23.06;26.65
13456;BME280;6800;50.940;6.940;2023-02-10T12:16:15;102929.84;;;22.59;26.55
13456;BME280;6800;50.940;6.940;2023-02-10T12:29:03;102927.63;;;22.03;27.26
13456;BME280;6800;50.940;6.940;2023-02-10T12:33:24;102923.56;;;21.45;27.67
13456;BME280;6800;50.940;6.940;2023-02-10T12:38:00;102915.09;;;21.65;27.64
13456;BME280;6800;50.940;6.940;2023-02-10T12:54:57;102894.00;;;20.56;28.07
13456;BME280;6800;50.940;6.940;2023-02-10T12:59:06;102889.59;;;19.98;27.61
13456;BME280;6800;50.940;6.940;2023-02-10T13:03:15;102881.81;;;19.67;27.65
13456;BME280;6800;50.940;6.940;2023-02-10T13:12:22;102873.44;;;19.89;27.47
13456;BME280;6800;50.940;6.940;2023-02-10T13:16:15;102878.94;;;19.70;27.92
13456;BME280;6800;50.940;6.940;2023-02-10T13:20:34;102870.06;;;19.57;28.58
13456;BME280;6800;50.940;6.940;2023-02-10T13:24:58;102869.34;;;19.54;28.71
13456;BME280;6800;50.940;6.940;2023-02-10T13:34:39;102860.09;;;19.31;29.10
13456;BME280;6800;50.940;6.940;2023-02-10T13:38:14;102867.72;;;19.51;29.04
13456;BME280;6800;50.940;6.940;2023-02-10T13:42:25;102859.50;;;19.26;29.58
13456;BME280;6800;50.940;6.940;2023-02-10T13:46:30;102863.66;;;19.30;29.64
13456;BME280;6800;50.940;6.940;2023-02-10T13:50:42;102855.81;;;19.44;29.55
13456;BME280;6800;50.940;6.940;2023-02-10T13:54:59;102854.00;;;19.15;30.27
13456;BME280;6800;50.940;6.940;2023-02-10T14:03:28;102845.13;;;19.45;29.17
13456;BME280;6800;50.940;6.940;2023-02-10T14:07:34;102848.91;;;19.26;29.31
13456;BME280;6800;50.940;6.940;2023-02-10T14:11:42;102848.72;;;19.29;29.25
13456;BME280;6800;50.940;6.940;2023-02-10T14:16:04;102840.31;;;19.07;29.77
13456;BME280;6800;50.940;6.940;2023-02-10T14:20:16;102842.66;;;18.82;29.61
13456;BME280;6800;50.940;6.940;2023-02-10T14:24:22;102832.81;;;18.99;29.45
13456;BME280;6800;50.940;6.940;2023-02-10T14:28:33;102827.34;;;18.40;30.21
13456;BME280;6800;50.940;6.940;2023-02-10T14:32:43;102831.81;;;18.70;29.41
13456;BME280;6800;50.940;6.940;2023-02-10T14:37:15;102836.16;;;19.62;28.99
13456;BME280;6800;50.940;6.940;2023-02-10T14:41:17;102828.19;;;19.34;28.95
13456;BME280;6800;50.940;6.940;2023-02-10T14:45:23;102833.47;;;19.18;29.28
13456;BME280;6800;50.940;6.940;2023-02-10T14:49:26;102828.72;;;19.39;29.20
13456;BME280;6800;50.940;6.940;2023-02-10T14:53:29;102833.47;;;19.18;28.84
13456;BME280;6800;50.940;6.940;2023-02-10T14:57:31;102823.53;;;19.37;28.89
13456;BME280;6800;50.940;6.940;2023-02-10T15:01:34;102821.72;;;18.93;29.74
13456;BME280;6800;50.940;6.940;2023-02-10T15:05:39;102825.66;;;19.31;28.65
13456;BME280;6800;50.940;6.940;2023-02-10T15:09:45;102834.63;;;19.28;29.08
13456;BME280;6800;50.940;6.940;2023-02-10T15:13:47;102826.81;;;19.11;29.79
13456;BME280;6800;50.940;6.940;2023-02-10T15:17:52;102822.34;;;18.98;29.40
13456;BME280;6800;50.940;6.940;2023-02-10T15:21:55;102815.31;;;18.97;29.67
13456;BME280;6800;50.940;6.940;2023-02-10T15:26:15;102820.81;;;18.94;29.55
13456;BME280;6800;50.940;6.940;2023-02-10T15:30:20;102819.34;;;18.73;30.16
13456;BME280;6800;50.940;6.940;2023-02-10T15:34:25;102817.16;;;18.81;29.93
13456;BME280;6800;50.940;6.940;2023-02-10T15:38:27;102824.00;;;18.53;30.36
13456;BME280;6800;50.940;6.940;2023-02-10T15:42:30;102822.00;;;18.73;30.50
13456;BME280;6800;50.940;6.940;2023-02-10T15:46:33;102820.97;;;18.91;30.52
13456;BME280;6800;50.940;6.940;2023-02-10T15:50:35;102821.94;;;18.74;30.64
13456;BME280;6800;50.940;6.940;2023-02-10T15:54:37;102823.56;;;18.77;30.56
13456;BME280;6800;50.940;6.940;2023-02-10T15:58:39;102825.94;;;18.65;31.03
13456;BME280;6800;50.940;6.940;2023-02-10T16:02:41;102833.63;;;18.54;31.23
13456;BME280;6800;50.940;6.940;2023-02-10T16:06:43;102830.38;;;18.49;30.81
13456;BME280;6800;50.940;6.940;2023-02-10T16:10:45;102828.50;;;18.51;31.22
13456;BME280;6800;50.940;6.940;2023-02-10T16:14:47;102829.91;;;18.26;31.86
13456;BME280;6800;50.940;6.940;2023-02-10T16:18:48;102823.16;;;18.20;31.61
13456;BME280;6800;50.940;6.940;2023-02-10T16:22:50;102814.94;;;18.09;32.81
13456;BME280;6800;50.940;6.940;2023-02-10T16:26:52;102816.31;;;18.16;32.08
13456;BME280;6800;50.940;6.940;2023-02-10T16:30:53;102807.41;;;18.34;32.40
13456;BME280;6800;50.940;6.940;2023-02-10T16:34:55;102801.28;;;18.49;32.80
13456;BME280;6800;50.940;6.940;2023-02-10T16:38:56;102795.56;;;18.57;32.13
13456;BME280;6800;50.940;6.940;2023-02-10T16:43:03;102804.00;;;18.48;31.81
13456;BME280;6800;50.940;6.940;2023-02-10T16:47:04;102815.19;;;18.53;32.17
13456;BME280;6800;50.940;6.940;2023-02-10T16:51:05;102811.84;;;18.65;32.00
13456;BME280;6800;50.940;6.940;2023-02-10T16:55:07;102809.72;;;18.56;32.37
13456;BME280;6800;50.940;6.940;2023-02-10T16:59:14;102821.66;;;18.47;32.22
13456;BME280;6800;50.940;6.940;2023-02-10T17:03:16;102825.25;;;18.46;32.43
13456;BME280;6800;50.940;6.940;2023-02-10T17:07:17;102826.97;;;18.63;32.51
13456;BME280;6800;50.940;6.940;2023-02-10T17:11:19;102829.28;;;18.53;32.71
13456;BME280;6800;50.940;6.940;2023-02-10T17:15:21;102832.09;;;18.50;32.41
13456;BME280;6800;50.940;6.940;2023-02-10T17:19:22;102835.44;;;18.37;32.65
13456;BME280;6800;50.940;6.940;2023-02-10T17:23:28;102834.69;;;18.19;32.55
13456;BME280;6800;50.940;6.940;2023-02-10T17:27:29;102824.22;;;18.01;33.08
13456;BME280;6800;50.940;6.940;2023-02-10T17:31:30;102831.78;;;17.91;33.38
13456;BME280;6800;50.940;6.940;2023-02-10T17:35:32;102824.09;;;17.86;33.18
13456;BME280;6800;50.940;6.940;2023-02-10T17:39:36;102832.69;;;17.74;33.66
13456;BME280;6800;50.940;6.940;2023-02-10T17:43:38;102847.34;;;17.63;34.08
13456;BME280;6800;50.940;6.940;2023-02-10T17:47:40;102845.13;;;17.55;34.06
13456;BME280;6800;50.940;6.940;2023-02-10T17:51:42;102843.13;;;17.42;34.38
13456;BME280;6800;50.940;6.940;2023-02-10T17:55:43;102834.75;;;17.34;34.87
13456;BME280;6800;50.940;6.940;2023-02-10T17:59:45;102835.75;;;17.31;34.84
13456;BME280;6800;50.940;6.940;2023-02-10T18:03:46;102828.78;;;17.30;34.90
13456;BME280;6800;50.940;6.940;2023-02-10T18:07:47;102826.44;;;17.41;35.17
13456;BME280;6800;50.940;6.940;2023-02-10T18:11:49;102835.66;;;17.68;34.75
13456;BME280;6800;50.940;6.940;2023-02-10T18:15:50;102825.75;;;17.72;35.11
13456;BME280;6800;50.940;6.940;2023-02-10T18:19:52;102836.34;;;17.72;34.61
13456;BME280;6800;50.940;6.940;2023-02-10T18:23:53;102838.03;;;17.73;34.67
13456;BME280;6800;50.940;6.940;2023-02-10T18:27:55;102852.53;;;17.81;34.91
13456;BME280;6800;50.940;6.940;2023-02-10T18:31:56;102855.13;;;17.83;34.81
13456;BME280;6800;50.940;6.940;2023-02-10T18:35:59;102856.50;;;17.90;34.90
13456;BME280;6800;50.940;6.940;2023-02-10T18:40:00;102856.13;;;17.80;34.76
13456;BME280;6800;50.940;6.940;2023-02-10T18:44:02;102847.75;;;17.72;35.04
13456;BME280;6800;50.940;6.940;2023-02-10T18:48:03;102840.72;;;17.88;35.20
13456;BME280;6800;50.940;6.940;2023-02-10T18:52:05;102848.13;;;17.82;35.44
13456;BME280;6800;50.940;6.940;2023-02-10T18:56:09;102835.34;;;17.90;35.24
13456;BME280;6800;50.940;6.940;2023-02-10T19:00:11;102840.81;;;17.87;35.45
13456;BME280;6800;50.940;6.940;2023-02-10T19:04:13;102834.44;;;17.91;35.59
13456;BME280;6800;50.940;6.940;2023-02-10T19:08:14;102829.47;;;17.85;35.99
13456;BME280;6800;50.940;6.940;2023-02-10T19:12:15;102829.03;;;17.77;36.57
13456;BME280;6800;50.940;6.940;2023-02-10T19:16:17;102845.72;;;17.77;36.19
13456;BME280;6800;50.940;6.940;2023-02-10T19:20:18;102846.00;;;17.88;36.27
13456;BME280;6800;50.940;6.940;2023-02-10T19:24:20;102839.94;;;17.86;36.50
13456;BME280;6800;50.940;6.940;2023-02-10T19:28:21;102830.34;;;17.85;36.93
13456;BME280;6800;50.940;6.940;2023-02-10T19:32:23;102828.81;;;17.97;36.74
13456;BME280;6800;50.940;6.940;2023-02-10T19:36:24;102830.44;;;18.00;36.86
13456;BME280;6800;50.940;6.940;2023-02-10T19:40:25;102826.84;;;18.01;36.69
13456;BME280;6800;50.940;6.940;2023-02-10T19:44:27;102822.09;;;18.07;36.31
13456;BME280;6800;50.940;6.940;2023-02-10T19:48:28;102819.19;;;17.96;37.11
13456;BME280;6800;50.940;6.940;2023-02-10T19:52:30;102830.25;;;17.87;37.01
13456;BME280;6800;50.940;6.940;2023-02-10T19:56:31;102815.16;;;17.89;36.45
13456;BME280;6800;50.940;6.940;2023-02-10T20:00:34;102804.94;;;17.83;36.95
13456;BME280;6800;50.940;6.940;2023-02-10T20:04:36;102802.06;;;17.70;36.86
13456;BME280;6800;50.940;6.940;2023-02-10T20:08:38;102799.50;;;17.69;37.08
13456;BME280;6800;50.940;6.940;2023-02-10T20:12:39;102806.16;;;17.76;36.95
13456;BME280;6800;50.940;6.940;2023-02-10T20:16:43;102809.59;;;17.78;36.90
13456;BME280;6800;50.940;6.940;2023-02-10T20:20:47;102804.31;;;17.78;37.13
13456;BME280;6800;50.940;6.940;2023-02-10T20:24:49;102798.25;;;17.42;37.43
13456;BME280;6800;50.940;6.940;2023-02-10T20:28:51;102795.84;;;17.71;36.76
13456;BME280;6800;50.940;6.940;2023-02-10T20:32:52;102794.72;;;17.60;37.16
13456;BME280;6800;50.940;6.940;2023-02-10T20:36:53;102788.66;;;17.58;37.16
13456;BME280;6800;50.940;6.940;2023-02-10T20:40:59;102784.06;;;17.61;36.80
13456;BME280;6800;50.940;6.940;2023-02-10T20:45:01;102797.06;;;17.81;36.69
13456;BME280;6800;50.940;6.940;2023-02-10T20:49:04;102805.50;;;17.88;37.03
13456;BME280;6800;50.940;6.940;2023-02-10T20:53:06;102804.16;;;17.97;36.77
13456;BME280;6800;50.940;6.940;2023-02-10T20:57:07;102806.69;;;17.82;36.71
13456;BME280;6800;50.940;6.940;2023-02-10T21:01:12;102811.13;;;17.82;36.77
13456;BME280;6800;50.940;6.940;2023-02-10T21:05:13;102811.13;;;17.82;36.37
13456;BME280;6800;50.940;6.940;2023-02-10T21:09:15;102823.44;;;17.66;36.91
13456;BME280;6800;50.940;6.940;2023-02-10T21:13:16;102824.34;;;17.82;36.98
13456;BME280;6800;50.940;6.940;2023-02-10T21:17:18;102824.97;;;17.87;36.90
13456;BME280;6800;50.940;6.940;2023-02-10T21:21:20;102826.97;;;17.82;36.78
13456;BME280;6800;50.940;6.940;2023-02-10T21:25:21;102809.47;;;17.64;36.59
13456;BME280;6800;50.940;6.940;2023-02-10T21:29:23;102810.94;;;18.02;36.77
13456;BME280;6800;50.940;6.940;2023-02-10T21:33:25;102820.84;;;18.14;36.09
13456;BME280;6800;50.940;6.940;2023-02-10T21:37:28;102814.25;;;18.06;36.47
13456;BME280;6800;50.940;6.940;2023-02-10T21:41:30;102820.41;;;18.06;36.50
13456;BME280;6800;50.940;6.940;2023-02-10T21:45:48;102824.97;;;18.03;36.67
13456;BME280;6800;50.940;6.940;2023-02-10T21:49:50;102821.75;;;18.13;36.67
13456;BME280;6800;50.940;6.940;2023-02-10T21:53:52;102824.59;;;18.10;36.56
13456;BME280;6800;50.940;6.940;2023-02-10T21:57:53;102819.13;;;18.13;36.46
13456;BME280;6800;50.940;6.940;2023-02-10T22:01:55;102809.69;;;17.92;36.78
13456;BME280;6800;50.940;6.940;2023-02-10T22:05:56;102796.78;;;18.03;36.93
13456;BME280;6800;50.940;6.940;2023-02-10T22:09:58;102793.91;;;18.23;36.71
13456;BME280;6800;50.940;6.940;2023-02-10T22:13:59;102782.19;;;18.12;36.70
13456;BME280;6800;50.940;6.940;2023-02-10T22:18:01;102775.38;;;18.08;36.73
13456;BME280;6800;50.940;6.940;2023-02-10T22:22:02;102776.41;;;18.05;36.81
13456;BME280;6800;50.940;6.940;2023-02-10T22:26:05;102771.63;;;18.12;36.85
13456;BME280;6800;50.940;6.940;2023-02-10T22:30:07;102774.97;;;18.15;36.69
13456;BME280;6800;50.940;6.940;2023-02-10T22:34:09;102769.41;;;18.04;37.09
13456;BME280;6800;50.940;6.940;2023-02-10T22:38:11;102762.25;;;18.06;36.86
13456;BME280;6800;50.940;6.940;2023-02-10T22:42:12;102770.97;;;18.08;36.98